Time;durP1;ratioP1;P1;durP2;ratioP2;P2;SDS_P1;SDS_P2;PMS_P1;PMS_P2;Temp;Humidity;BMP_temperature;BMP_pressure;BME280_temperature;BME280_humidity;BME280_pressure;Samples;Min_cycle;Max_cycle;Signal;HPM_P1;HPM_P2
2022/05/12 04:00:21;;;;;;;2.10;2.00;;;20.00;85.10;;;;;;6031367;23;22083;-72
2022/05/12 04:02:48;;;;;;;3.10;2.23;;;20.00;85.70;;;;;;4978060;28;20474;-73
2022/05/12 04:05:15;;;;;;;2.83;2.03;;;20.00;86.20;;;;;;4978121;28;20865;-73
2022/05/12 04:07:44;;;;;;;2.23;2.03;;;20.00;86.60;;;;;;4978675;28;20461;-74
2022/05/12 04:10:12;;;;;;;3.73;1.80;;;20.00;87.00;;;;;;4979177;28;20459;-73
2022/05/12 04:12:39;;;;;;;4.87;2.10;;;20.00;87.00;;;;;;4978834;28;20458;-73
2022/05/12 04:15:08;;;;;;;2.43;2.20;;;20.00;87.60;;;;;;4978393;28;20891;-74
2022/05/12 04:17:36;;;;;;;3.13;2.93;;;19.90;87.70;;;;;;4978323;28;20458;-73
2022/05/12 04:20:05;;;;;;;3.20;2.03;;;19.90;89.00;;;;;;4978723;28;20869;-73
2022/05/12 04:22:31;;;;;;;3.03;2.17;;;19.90;89.10;;;;;;4978584;28;20475;-73
2022/05/12 04:24:58;;;;;;;2.00;1.43;;;19.90;89.40;;;;;;4979528;28;20483;-73
2022/05/12 04:27:25;;;;;;;2.60;2.00;;;19.90;89.80;;;;;;4978497;28;20454;-74
2022/05/12 04:29:52;;;;;;;2.40;2.03;;;20.00;90.60;;;;;;4978694;28;20463;-73
2022/05/12 04:32:18;;;;;;;4.13;2.40;;;20.00;90.50;;;;;;4978200;28;20987;-73
2022/05/12 04:37:33;;;;;;;2.63;2.43;;;20.00;91.00;;;;;;4978158;28;20474;-73
2022/05/12 04:40:05;;;;;;;3.20;2.00;;;20.00;91.30;;;;;;4977935;28;20467;-73
2022/05/12 04:42:32;;;;;;;3.43;2.20;;;20.00;91.70;;;;;;4978281;28;20511;-73
2022/05/12 04:44:59;;;;;;;4.50;2.40;;;20.00;91.70;;;;;;4977951;28;20478;-73
2022/05/12 04:47:26;;;;;;;2.73;2.53;;;20.00;91.90;;;;;;4978245;28;20509;-73
2022/05/12 04:49:55;;;;;;;2.80;2.13;;;20.00;92.00;;;;;;4977585;28;20485;-73
2022/05/12 04:52:22;;;;;;;7.90;2.30;;;20.00;92.40;;;;;;4977911;28;20478;-73
2022/05/12 04:54:49;;;;;;;2.23;2.10;;;19.90;92.60;;;;;;4977745;28;20545;-74
2022/05/12 04:57:16;;;;;;;5.30;2.70;;;19.90;92.90;;;;;;4978394;28;20466;-73
2022/05/12 04:59:43;;;;;;;2.33;2.23;;;19.90;93.40;;;;;;4979121;28;20490;-74
2022/05/12 05:02:09;;;;;;;2.33;2.23;;;19.90;93.80;;;;;;4978151;28;20505;-74
2022/05/12 05:04:36;;;;;;;3.03;2.27;;;20.00;94.20;;;;;;4978342;28;20485;-76
2022/05/12 05:07:06;;;;;;;2.00;1.90;;;19.90;94.40;;;;;;4977891;28;20454;-73
2022/05/12 05:09:33;;;;;;;1.93;1.67;;;20.00;94.70;;;;;;4977393;28;20470;-76
2022/05/12 05:12:00;;;;;;;3.60;1.93;;;20.10;94.80;;;;;;4977280;28;20554;-75
2022/05/12 05:14:27;;;;;;;2.73;2.40;;;20.10;95.00;;;;;;4977964;28;20458;-75
2022/05/12 05:16:53;;;;;;;3.20;2.33;;;20.20;94.70;;;;;;4978522;28;20464;-74
2022/05/12 05:19:20;;;;;;;4.83;2.13;;;20.30;95.00;;;;;;4977569;28;20817;-74
2022/05/12 05:21:47;;;;;;;2.17;2.00;;;20.40;95.00;;;;;;4977462;28;20470;-74
2022/05/12 05:24:15;;;;;;;3.27;2.00;;;20.60;94.70;;;;;;4978274;28;20474;-74
2022/05/12 05:26:42;;;;;;;5.10;1.90;;;20.80;95.40;;;;;;4977048;28;20455;-75
2022/05/12 05:29:10;;;;;;;3.43;2.00;;;21.00;94.70;;;;;;4977222;28;20485;-72
2022/05/12 05:31:38;;;;;;;5.23;2.20;;;21.30;94.20;;;;;;4976988;28;20840;-73
2022/05/12 05:34:05;;;;;;;4.10;1.90;;;21.50;93.60;;;;;;4976549;28;20478;-73
2022/05/12 05:36:32;;;;;;;2.60;2.20;;;21.80;93.60;;;;;;4975924;28;20545;-73
2022/05/12 05:38:58;;;;;;;3.63;2.07;;;21.80;92.30;;;;;;4975906;28;20462;-73
2022/05/12 05:41:26;;;;;;;2.13;2.03;;;21.90;92.40;;;;;;4976025;28;20506;-73
2022/05/12 05:43:53;;;;;;;1.80;1.70;;;21.90;92.30;;;;;;4975944;28;20479;-73
2022/05/12 05:46:20;;;;;;;2.30;2.10;;;21.80;91.90;;;;;;4976832;28;20479;-73
2022/05/12 05:48:50;;;;;;;2.00;1.90;;;21.70;92.30;;;;;;4976549;28;20454;-73
2022/05/12 05:54:01;;;;;;;3.27;2.00;;;21.60;92.30;;;;;;4975510;28;20414;-73
2022/05/12 05:56:29;;;;;;;4.13;2.03;;;21.50;92.50;;;;;;4975889;28;20469;-74
2022/05/12 05:58:56;;;;;;;2.27;2.07;;;21.50;93.30;;;;;;4975845;28;20459;-75
2022/05/12 06:01:22;;;;;;;3.30;1.90;;;21.30;93.30;;;;;;4975629;28;20486;-75
2022/05/12 06:03:49;;;;;;;5.07;2.00;;;21.30;94.40;;;;;;4975452;28;20482;-74
2022/05/12 06:06:16;;;;;;;2.43;1.93;;;21.30;94.30;;;;;;4976015;28;20459;-74
2022/05/12 06:08:43;;;;;;;2.50;2.10;;;21.30;94.10;;;;;;4975625;28;20920;-75
2022/05/12 06:11:10;;;;;;;3.27;2.23;;;21.30;97.00;;;;;;4975647;28;20474;-75
2022/05/12 06:13:38;;;;;;;3.57;1.80;;;21.20;95.60;;;;;;4975423;28;21001;-75
2022/05/12 06:16:06;;;;;;;3.13;2.10;;;21.20;95.70;;;;;;4975711;28;20979;-73
2022/05/12 06:18:34;;;;;;;5.70;1.87;;;21.10;95.40;;;;;;4975494;28;20459;-73
2022/05/12 06:21:01;;;;;;;2.10;1.90;;;21.10;96.30;;;;;;4975318;28;20975;-73
2022/05/12 06:23:28;;;;;;;2.43;2.13;;;21.20;97.00;;;;;;4975457;28;20466;-74
2022/05/12 06:25:55;;;;;;;1.90;1.63;;;21.20;96.40;;;;;;4975392;28;20455;-74
2022/05/12 06:28:21;;;;;;;1.80;1.67;;;21.20;96.70;;;;;;4975433;28;20455;-74
2022/05/12 06:30:49;;;;;;;3.00;1.80;;;21.20;96.90;;;;;;4975513;28;20479;-74
2022/05/12 06:33:17;;;;;;;2.80;1.70;;;21.30;96.90;;;;;;4975556;28;20463;-74
2022/05/12 06:35:44;;;;;;;6.87;1.57;;;21.50;97.50;;;;;;4975212;28;20478;-74
2022/05/12 06:38:11;;;;;;;3.83;1.97;;;21.70;96.10;;;;;;4975463;28;20490;-74
2022/05/12 06:40:38;;;;;;;2.10;1.57;;;21.80;95.90;;;;;;4975014;28;20479;-74
2022/05/12 06:43:05;;;;;;;4.53;1.57;;;22.00;94.70;;;;;;4975194;28;20459;-74
2022/05/12 06:45:32;;;;;;;2.13;1.80;;;22.20;94.80;;;;;;4975198;28;20478;-74
2022/05/12 06:48:01;;;;;;;3.93;1.50;;;22.30;94.50;;;;;;4975484;28;20455;-74
2022/05/12 06:50:31;;;;;;;1.60;1.50;;;22.40;94.10;;;;;;4975332;28;20459;-74
2022/05/12 06:52:59;;;;;;;5.67;1.67;;;22.20;94.40;;;;;;4975265;28;20449;-73
2022/05/12 06:55:27;;;;;;;3.63;1.50;;;22.30;95.20;;;;;;4975582;28;20529;-73
2022/05/12 06:57:54;;;;;;;2.27;1.60;;;22.20;94.50;;;;;;4974994;28;20458;-74
2022/05/12 07:00:21;;;;;;;1.50;1.40;;;22.10;94.80;;;;;;4974909;28;20458;-74
2022/05/12 07:02:48;;;;;;;2.97;1.60;;;22.00;94.20;;;;;;4976010;28;20786;-73
2022/05/12 07:05:19;;;;;;;2.13;1.53;;;22.00;94.60;;;;;;4975214;28;20892;-74
2022/05/12 07:07:46;;;;;;;1.87;1.77;;;21.80;95.60;;;;;;4975169;28;20474;-74
2022/05/12 07:10:14;;;;;;;2.30;1.93;;;21.80;95.50;;;;;;4974737;28;20952;-73
2022/05/12 07:12:42;;;;;;;2.70;1.40;;;21.80;96.60;;;;;;4977892;28;20481;-74
2022/05/12 07:15:10;;;;;;;11.63;1.77;;;21.80;96.20;;;;;;4979390;28;20463;-73
2022/05/12 07:17:38;;;;;;;5.40;2.90;;;21.80;96.50;;;;;;4978882;28;20458;-74
2022/05/12 07:28:20;;;;;;;1.97;1.70;;;21.60;95.80;;;;;;4978858;28;20789;-73
2022/05/12 07:31:02;;;;;;;2.87;1.97;;;21.50;96.10;;;;;;4978402;28;20479;-74
2022/05/12 07:33:29;;;;;;;2.07;1.80;;;21.40;95.90;;;;;;4978825;28;20449;-73
2022/05/12 07:35:55;;;;;;;1.77;1.67;;;21.30;96.40;;;;;;4978423;28;20995;-73
2022/05/12 07:38:24;;;;;;;3.90;1.97;;;21.20;97.10;;;;;;4978674;28;20569;-74
2022/05/12 07:40:51;;;;;;;3.03;1.93;;;21.10;97.50;;;;;;4978476;28;20533;-74
2022/05/12 07:43:18;;;;;;;4.33;1.90;;;21.10;97.40;;;;;;4978551;28;20493;-73
2022/05/12 07:45:45;;;;;;;1.97;1.80;;;21.10;98.40;;;;;;4978368;28;20619;-74
2022/05/12 07:48:12;;;;;;;3.73;1.87;;;21.20;98.30;;;;;;4979881;28;20455;-70
2022/05/12 07:50:39;;;;;;;2.57;2.27;;;21.20;98.00;;;;;;4981092;28;20481;-74
2022/05/12 07:53:06;;;;;;;2.90;2.20;;;21.30;98.10;;;;;;4982128;28;20486;-76
2022/05/12 07:55:35;;;;;;;2.23;2.03;;;21.30;97.90;;;;;;4981352;28;20458;-76
2022/05/12 07:58:03;;;;;;;3.03;1.50;;;21.40;97.60;;;;;;4979704;28;20497;-76
2022/05/12 08:00:30;;;;;;;3.60;2.10;;;21.50;98.10;;;;;;4978493;28;20466;-76
2022/05/12 08:02:56;;;;;;;5.60;2.40;;;21.60;99.60;;;;;;4982292;28;20539;-76
2022/05/12 08:05:23;;;;;;;2.20;1.60;;;21.80;98.80;;;;;;4984032;28;20482;-76
2022/05/12 08:07:51;;;;;;;4.83;1.60;;;22.10;97.80;;;;;;4981799;28;20454;-76
2022/05/12 08:10:19;;;;;;;4.50;1.97;;;22.30;96.50;;;;;;4979613;28;20458;-76
2022/05/12 08:12:47;;;;;;;2.17;1.67;;;22.50;96.60;;;;;;4978094;28;20461;-76
2022/05/12 08:15:13;;;;;;;3.63;1.70;;;22.70;96.80;;;;;;4978030;28;20487;-77
2022/05/12 08:17:40;;;;;;;5.40;2.03;;;22.80;95.80;;;;;;4978627;28;20516;-77
2022/05/12 08:20:11;;;;;;;1.70;1.60;;;23.00;96.30;;;;;;4977469;28;20470;-77
2022/05/12 08:22:37;;;;;;;2.20;1.57;;;23.20;95.30;;;;;;4976804;28;20928;-76
2022/05/12 08:25:07;;;;;;;6.43;1.63;;;23.60;94.40;;;;;;4977427;28;20478;-76
2022/05/12 08:27:35;;;;;;;5.50;1.93;;;24.00;94.20;;;;;;4978501;28;20788;-76
2022/05/12 08:30:04;;;;;;;2.70;1.80;;;25.00;93.50;;;;;;4977869;28;20465;-76
2022/05/12 08:32:31;;;;;;;1.67;1.53;;;26.20;91.80;;;;;;4977463;28;20481;-76
2022/05/12 08:34:57;;;;;;;3.30;1.77;;;27.10;86.90;;;;;;4977510;28;20451;-76
2022/05/12 08:37:24;;;;;;;2.87;1.57;;;27.60;85.80;;;;;;4977553;28;20457;-76
2022/05/12 08:39:51;;;;;;;3.37;2.20;;;27.70;83.40;;;;;;4977734;28;20459;-76
2022/05/12 08:42:24;;;;;;;2.83;1.70;;;27.30;81.40;;;;;;4976890;28;20987;-76
2022/05/12 08:44:51;;;;;;;4.60;1.70;;;27.40;81.00;;;;;;4977304;28;20470;-76
2022/05/12 08:47:26;;;;;;;3.77;1.73;;;27.50;81.40;;;;;;4977128;28;20458;-76
2022/05/12 08:49:53;;;;;;;3.40;1.67;;;27.50;84.00;;;;;;4977001;28;20451;-76
2022/05/12 08:52:23;;;;;;;2.23;1.70;;;27.70;82.00;;;;;;4976972;28;20478;-76
2022/05/12 08:54:54;;;;;;;2.13;1.90;;;27.80;79.40;;;;;;4977831;28;20919;-76
2022/05/12 08:57:31;;;;;;;2.27;1.40;;;27.70;81.00;;;;;;4977684;28;20439;-76
2022/05/12 08:59:59;;;;;;;2.50;1.70;;;27.40;78.80;;;;;;4976882;28;20912;-76
2022/05/12 09:02:34;;;;;;;2.33;2.00;;;27.00;82.10;;;;;;4976944;28;20490;-76
2022/05/12 09:05:06;;;;;;;2.63;1.83;;;26.80;82.80;;;;;;4976692;28;20469;-76
2022/05/12 09:07:39;;;;;;;2.57;1.80;;;26.60;84.30;;;;;;4977399;28;20450;-76
2022/05/12 09:10:34;;;;;;;3.73;1.87;;;26.50;86.80;;;;;;4977162;28;20940;-76
2022/05/12 09:13:03;;;;;;;2.93;2.10;;;26.30;84.90;;;;;;4976759;28;20486;-76
2022/05/12 09:15:32;;;;;;;1.90;1.80;;;26.30;89.10;;;;;;4976733;28;20451;-76
2022/05/12 09:18:02;;;;;;;1.73;1.60;;;26.50;86.30;;;;;;4977097;28;20456;-76
2022/05/12 09:20:32;;;;;;;2.97;1.97;;;26.50;83.70;;;;;;4977364;28;20442;-76
2022/05/12 09:22:59;;;;;;;3.07;2.37;;;26.30;84.40;;;;;;4978048;28;20967;-76
2022/05/12 09:25:36;;;;;;;1.93;1.83;;;26.60;86.60;;;;;;4978819;28;20486;-76
2022/05/12 09:28:20;;;;;;;4.00;2.40;;;27.50;87.60;;;;;;4978541;28;20446;-76
2022/05/12 09:30:48;;;;;;;2.60;2.33;;;28.50;86.10;;;;;;4978670;28;20477;-76
2022/05/12 09:33:25;;;;;;;2.37;2.17;;;29.20;79.60;;;;;;4978943;28;20461;-76
2022/05/12 09:35:54;;;;;;;2.40;2.27;;;29.50;75.90;;;;;;4979445;28;20443;-76
2022/05/12 09:38:26;;;;;;;2.70;2.50;;;29.60;76.70;;;;;;4978025;28;20461;-76
2022/05/12 09:40:53;;;;;;;6.13;4.30;;;29.50;75.80;;;;;;4978781;28;20843;-76
2022/05/12 09:43:28;;;;;;;3.63;2.50;;;29.80;76.10;;;;;;4978781;28;20458;-76
2022/05/12 09:46:08;;;;;;;2.40;2.30;;;29.90;75.20;;;;;;4979038;28;20482;-77
2022/05/12 09:48:38;;;;;;;3.03;1.80;;;29.80;73.10;;;;;;4978534;28;20890;-77
2022/05/12 09:51:22;;;;;;;3.50;2.43;;;29.70;73.60;;;;;;4978194;28;20485;-76
2022/05/12 09:53:50;;;;;;;2.77;2.40;;;29.20;73.70;;;;;;4978617;28;20471;-74
2022/05/12 09:56:31;;;;;;;3.63;3.07;;;29.00;75.20;;;;;;4978637;28;20642;-73
2022/05/12 09:59:06;;;;;;;3.73;2.50;;;28.80;76.00;;;;;;4977856;28;20439;-73
2022/05/12 10:01:34;;;;;;;2.70;2.17;;;28.60;77.30;;;;;;4978386;28;20494;-73
2022/05/12 10:09:53;;;;;;;2.50;2.30;;;27.90;78.40;;;;;;4979544;28;20570;-73
2022/05/12 10:12:23;;;;;;;2.90;2.63;;;28.30;78.50;;;;;;4978034;28;21008;-73
2022/05/12 10:14:54;;;;;;;2.50;2.40;;;28.70;75.90;;;;;;4978480;28;20446;-73
2022/05/12 10:17:28;;;;;;;5.07;2.87;;;28.80;73.90;;;;;;4978357;28;20806;-73
2022/05/12 10:20:08;;;;;;;3.40;3.20;;;28.60;75.70;;;;;;4978870;28;20452;-73
2022/05/12 10:22:42;;;;;;;3.90;3.10;;;28.40;71.10;;;;;;4978684;28;20466;-73
2022/05/12 10:25:21;;;;;;;3.80;2.63;;;28.20;74.70;;;;;;4978375;28;20810;-73
2022/05/12 10:27:53;;;;;;;2.97;2.50;;;27.70;74.00;;;;;;4978082;28;20446;-73
2022/05/12 10:30:38;;;;;;;3.03;2.77;;;27.50;79.00;;;;;;4977832;28;20439;-74
2022/05/12 10:33:37;;;;;;;5.53;3.20;;;27.60;77.20;;;;;;4977321;28;20435;-71
2022/05/12 10:36:22;;;;;;;4.70;3.03;;;27.80;78.80;;;;;;4965591;28;20457;-71
2022/05/12 10:38:58;;;;;;;3.40;2.67;;;28.40;76.60;;;;;;4977852;28;20445;-73
2022/05/12 10:41:33;;;;;;;2.80;2.60;;;29.20;74.70;;;;;;4976556;28;20474;-73
2022/05/12 10:44:14;;;;;;;3.03;2.83;;;29.20;73.40;;;;;;4977290;28;20966;-74
2022/05/12 10:46:51;;;;;;;2.80;2.60;;;29.60;73.90;;;;;;4978436;28;20467;-75
2022/05/12 10:49:22;;;;;;;3.47;2.67;;;29.90;71.90;;;;;;4979069;28;20446;-73
2022/05/12 10:52:12;;;;;;;4.27;3.10;;;29.50;68.40;;;;;;4977911;28;20483;-75
2022/05/12 10:54:48;;;;;;;2.67;2.23;;;29.10;70.80;;;;;;4977843;28;20447;-75
2022/05/12 10:57:29;;;;;;;3.73;2.93;;;29.00;72.00;;;;;;4977125;28;20810;-75
2022/05/12 11:00:13;;;;;;;3.87;3.47;;;28.80;71.80;;;;;;4977240;28;20443;-77
2022/05/12 11:02:42;;;;;;;5.17;2.63;;;28.90;75.20;;;;;;4980867;28;20439;-75
2022/05/12 11:05:26;;;;;;;6.20;3.27;;;29.00;73.90;;;;;;4978640;28;20490;-79
2022/05/12 11:08:00;;;;;;;2.90;2.70;;;28.60;73.30;;;;;;4976033;28;20439;-77
2022/05/12 11:10:30;;;;;;;2.90;2.70;;;28.20;73.70;;;;;;4977186;28;20461;-74
2022/05/12 11:13:01;;;;;;;2.60;2.50;;;27.90;74.70;;;;;;4976491;28;20443;-76
2022/05/12 11:15:31;;;;;;;3.17;2.97;;;27.80;78.10;;;;;;4977837;28;20549;-77
2022/05/12 11:18:00;;;;;;;3.17;2.97;;;28.00;77.20;;;;;;4977280;28;20505;-77
2022/05/12 11:20:32;;;;;;;3.27;2.97;;;28.70;76.30;;;;;;4979724;28;20486;-77
2022/05/12 11:23:15;;;;;;;4.97;3.20;;;29.30;80.20;;;;;;4978865;28;20522;-77
2022/05/12 11:25:57;;;;;;;3.13;2.90;;;30.00;71.00;;;;;;4977475;28;20830;-75
2022/05/12 11:31:24;;;;;;;4.20;3.00;;;30.80;69.00;;;;;;4977799;28;20473;-74
2022/05/12 11:33:54;;;;;;;4.00;2.73;;;30.80;71.00;;;;;;4978456;28;20473;-75
2022/05/12 11:36:21;;;;;;;3.47;2.53;;;31.30;65.20;;;;;;4977762;28;20531;-74
2022/05/12 11:38:53;;;;;;;4.60;2.80;;;31.60;65.80;;;;;;4978330;28;20470;-74
2022/05/12 11:41:40;;;;;;;2.80;2.60;;;31.50;67.50;;;;;;4977876;28;20578;-74
2022/05/12 11:44:28;;;;;;;6.13;2.40;;;31.70;69.10;;;;;;4978558;28;20657;-74
2022/05/12 11:47:27;;;;;;;3.20;2.90;;;31.40;66.10;;;;;;4976258;28;20471;-77
2022/05/12 11:50:09;;;;;;;4.80;2.73;;;31.50;69.30;;;;;;4979230;28;20450;-74
2022/05/12 11:52:47;;;;;;;2.90;2.73;;;31.40;65.40;;;;;;4981341;28;20478;-74
2022/05/12 11:55:26;;;;;;;2.43;2.33;;;31.20;65.60;;;;;;4982021;28;20445;-74
2022/05/12 11:58:04;;;;;;;3.40;3.20;;;31.00;67.00;;;;;;4979236;28;20806;-75
2022/05/12 12:01:00;;;;;;;3.20;2.90;;;31.00;65.80;;;;;;4979769;28;20497;-75
2022/05/12 12:03:56;;;;;;;2.70;1.93;;;31.30;66.60;;;;;;4980000;28;20458;-76
2022/05/12 12:06:50;;;;;;;5.17;2.70;;;31.10;67.10;;;;;;4980502;28;20482;-74
2022/05/12 12:09:51;;;;;;;2.03;1.93;;;30.90;65.80;;;;;;4980858;28;20784;-74
2022/05/12 12:12:51;;;;;;;3.90;3.00;;;30.70;66.80;;;;;;4980363;28;20506;-77
2022/05/12 12:16:02;;;;;;;3.43;3.03;;;30.50;65.00;;;;;;4980629;28;20461;-77
2022/05/12 12:19:14;;;;;;;3.10;2.80;;;30.50;67.90;;;;;;4981156;28;20434;-76
2022/05/12 12:21:45;;;;;;;3.50;2.80;;;30.30;69.40;;;;;;4979658;28;20485;-76
2022/05/12 12:25:00;;;;;;;4.00;2.97;;;30.40;66.80;;;;;;4980413;28;20454;-76
2022/05/12 12:27:49;;;;;;;3.20;2.90;;;30.20;68.10;;;;;;4983931;28;20471;-76
2022/05/12 12:30:57;;;;;;;3.57;3.10;;;30.50;69.40;;;;;;4986480;28;20443;-74
2022/05/12 12:33:53;;;;;;;3.43;3.13;;;30.70;65.60;;;;;;4986970;28;20450;-74
2022/05/12 12:37:06;;;;;;;2.80;2.60;;;30.60;69.30;;;;;;4983731;28;20435;-73
2022/05/12 12:39:51;;;;;;;3.20;2.90;;;30.40;68.80;;;;;;4981197;28;20438;-74
2022/05/12 12:42:39;;;;;;;2.77;2.57;;;29.90;69.90;;;;;;4979970;28;21010;-73
2022/05/12 12:45:10;;;;;;;4.13;2.80;;;29.60;69.80;;;;;;4979963;28;20449;-74
2022/05/12 12:47:55;;;;;;;5.80;2.80;;;29.50;71.30;;;;;;4980360;28;20470;-74
2022/05/12 12:50:32;;;;;;;5.17;3.23;;;29.60;72.00;;;;;;4980872;28;20474;-74
2022/05/12 12:52:58;;;;;;;3.53;2.87;;;29.50;66.80;;;;;;4980876;28;20442;-74
2022/05/12 12:58:14;;;;;;;4.33;3.13;;;29.00;71.90;;;;;;4981426;28;20566;-74
2022/05/12 13:00:41;;;;;;;3.63;2.90;;;28.70;71.70;;;;;;4981012;28;20490;-74
2022/05/12 13:03:20;;;;;;;6.03;3.27;;;28.60;71.80;;;;;;4980921;28;21012;-74
2022/05/12 13:05:47;;;;;;;6.43;2.73;;;28.50;72.70;;;;;;4981444;28;20499;-74
2022/05/12 13:08:24;;;;;;;3.50;3.20;;;28.40;73.70;;;;;;4981766;28;20461;-74
2022/05/12 13:10:55;;;;;;;4.10;3.10;;;28.30;69.80;;;;;;4979164;28;20842;-73
2022/05/12 13:13:23;;;;;;;7.00;3.03;;;28.10;74.40;;;;;;4979698;28;20490;-74
2022/05/12 13:15:55;;;;;;;3.53;3.33;;;28.20;75.90;;;;;;4980358;28;20446;-75
2022/05/12 13:18:28;;;;;;;3.70;2.67;;;28.50;79.00;;;;;;4981087;28;20442;-75
2022/05/12 13:20:55;;;;;;;3.10;2.90;;;28.90;74.60;;;;;;4982698;28;20478;-75
2022/05/12 13:23:25;;;;;;;5.83;2.73;;;29.10;71.60;;;;;;4984059;28;20451;-75
2022/05/12 13:25:52;;;;;;;5.03;2.93;;;29.50;71.00;;;;;;4983202;28;20486;-76
2022/05/12 13:28:22;;;;;;;4.43;4.03;;;29.90;72.00;;;;;;4983362;28;20870;-75
2022/05/12 13:30:51;;;;;;;3.40;3.10;;;30.20;69.50;;;;;;4985388;28;20475;-75
2022/05/12 13:33:25;;;;;;;5.53;2.83;;;30.00;70.10;;;;;;4986982;28;20462;-76
2022/05/12 13:35:58;;;;;;;4.87;3.20;;;30.00;68.50;;;;;;4985692;28;20478;-76
2022/05/12 13:38:29;;;;;;;6.90;2.53;;;30.10;68.10;;;;;;4985033;28;20506;-76
2022/05/12 13:40:58;;;;;;;4.70;3.23;;;30.10;71.90;;;;;;4986725;28;20470;-76
2022/05/12 13:43:29;;;;;;;3.73;3.20;;;30.10;69.60;;;;;;4984581;28;20463;-74
2022/05/12 13:46:22;;;;;;;3.97;3.67;;;30.20;67.90;;;;;;4985900;28;20549;-74
2022/05/12 13:49:01;;;;;;;3.43;3.00;;;30.40;70.00;;;;;;4986437;28;20916;-75
2022/05/12 13:51:52;;;;;;;3.20;2.80;;;30.30;70.20;;;;;;4983548;28;20474;-74
2022/05/12 13:54:28;;;;;;;4.43;3.20;;;30.10;67.70;;;;;;4984293;28;20442;-74
2022/05/12 13:57:12;;;;;;;3.73;3.30;;;29.90;70.80;;;;;;4983944;28;20438;-75
2022/05/12 13:59:38;;;;;;;3.10;2.90;;;29.90;72.40;;;;;;4983097;28;20468;-75
2022/05/12 14:02:16;;;;;;;5.87;2.93;;;29.70;71.00;;;;;;4981676;28;20482;-75
2022/05/12 14:04:44;;;;;;;3.60;3.30;;;29.60;70.00;;;;;;4981735;28;20841;-74
2022/05/12 14:07:12;;;;;;;3.27;3.00;;;29.40;71.10;;;;;;4981137;28;20482;-74
2022/05/12 14:09:52;;;;;;;3.00;2.80;;;29.20;70.10;;;;;;4983946;28;20490;-74
2022/05/12 14:12:24;;;;;;;3.13;2.83;;;29.10;71.70;;;;;;4982561;28;20481;-73
2022/05/12 14:20:29;;;;;;;3.80;3.17;;;28.60;71.90;;;;;;4976413;28;20916;-73
2022/05/12 14:22:56;;;;;;;4.07;2.90;;;28.40;74.20;;;;;;4977913;28;20439;-73
2022/05/12 14:25:24;;;;;;;5.70;2.60;;;28.20;74.10;;;;;;4977957;28;20462;-73
2022/05/12 14:27:51;;;;;;;7.80;3.43;;;28.10;75.40;;;;;;4978573;28;20571;-73
2022/05/12 14:30:19;;;;;;;4.07;3.70;;;27.80;74.30;;;;;;4976157;28;20463;-73
2022/05/12 14:32:47;;;;;;;5.90;3.20;;;27.70;75.40;;;;;;4977545;28;20454;-73
2022/05/12 14:35:19;;;;;;;4.80;3.50;;;27.60;76.20;;;;;;4978170;28;20942;-73
2022/05/12 14:37:49;;;;;;;6.70;3.80;;;27.40;75.80;;;;;;4977540;28;20497;-73
2022/05/12 14:40:17;;;;;;;6.13;3.17;;;27.30;77.20;;;;;;4978372;28;20513;-73
2022/05/12 14:42:44;;;;;;;5.50;3.43;;;27.20;76.90;;;;;;4979492;28;20812;-73
2022/05/12 14:45:12;;;;;;;3.13;2.93;;;27.10;78.60;;;;;;4980041;28;20451;-75
2022/05/12 14:47:39;;;;;;;3.70;3.50;;;27.00;77.60;;;;;;4978152;28;20479;-72
2022/05/12 14:50:07;;;;;;;9.57;4.00;;;27.00;77.80;;;;;;4976629;28;20458;-73
2022/05/12 14:52:34;;;;;;;3.60;3.33;;;26.90;76.90;;;;;;4977465;28;20478;-73
2022/05/12 14:55:02;;;;;;;3.87;3.47;;;26.80;78.60;;;;;;4977856;28;20486;-72
2022/05/12 14:57:28;;;;;;;7.23;3.50;;;26.80;79.40;;;;;;4977688;28;20455;-72
2022/05/12 14:59:55;;;;;;;3.20;3.00;;;26.60;78.20;;;;;;4977346;28;20454;-73
2022/05/12 15:02:25;;;;;;;4.63;3.37;;;26.60;79.60;;;;;;4975601;28;20486;-72
2022/05/12 15:04:52;;;;;;;4.73;3.10;;;26.60;78.70;;;;;;4977008;28;20461;-72
2022/05/12 15:07:19;;;;;;;8.47;3.73;;;26.40;79.50;;;;;;4975467;28;21007;-72
2022/05/12 15:09:45;;;;;;;5.80;3.37;;;26.40;80.90;;;;;;4974645;28;20982;-72
2022/05/12 15:12:14;;;;;;;3.43;3.23;;;26.30;81.30;;;;;;4975062;28;20486;-72
2022/05/12 15:14:44;;;;;;;7.07;3.40;;;26.30;81.40;;;;;;4975214;28;20482;-73
2022/05/12 15:17:12;;;;;;;7.00;3.10;;;26.20;79.70;;;;;;4975322;28;20454;-73
2022/05/12 15:19:39;;;;;;;5.83;3.30;;;26.00;81.60;;;;;;4975238;28;20486;-73
2022/05/12 15:22:06;;;;;;;5.63;3.37;;;26.00;82.30;;;;;;4974983;28;20481;-74
2022/05/12 15:24:34;;;;;;;4.87;3.87;;;25.90;82.20;;;;;;4975116;28;20455;-72
2022/05/12 15:27:04;;;;;;;4.43;3.23;;;25.80;82.00;;;;;;4974845;28;20475;-74
2022/05/12 15:29:32;;;;;;;4.00;3.30;;;25.60;82.50;;;;;;4975107;28;20530;-73
2022/05/12 15:31:59;;;;;;;4.70;3.57;;;25.50;82.70;;;;;;4975028;28;20483;-73
2022/05/12 15:34:26;;;;;;;4.70;3.23;;;25.20;83.30;;;;;;4978606;28;20465;-74
2022/05/12 15:36:53;;;;;;;5.67;3.57;;;25.10;85.90;;;;;;4978717;28;20505;-73
2022/05/12 15:39:23;;;;;;;9.50;5.03;;;24.90;86.00;;;;;;4978663;28;20462;-73
2022/05/12 15:41:53;;;;;;;4.60;4.20;;;24.70;90.60;;;;;;4978635;28;20474;-73
2022/05/12 15:44:20;;;;;;;3.97;3.73;;;24.60;92.30;;;;;;4978490;28;20442;-74
2022/05/12 15:46:53;;;;;;;3.80;3.50;;;24.30;92.90;;;;;;4978407;28;20478;-73
2022/05/12 15:49:22;;;;;;;3.97;3.77;;;24.20;93.60;;;;;;4982433;28;20497;-73
2022/05/12 15:51:50;;;;;;;5.10;3.83;;;24.10;94.60;;;;;;4982632;28;20482;-76
2022/05/12 15:54:17;;;;;;;3.70;3.50;;;24.00;93.90;;;;;;4980104;28;20461;-74
2022/05/12 15:56:44;;;;;;;6.43;4.17;;;23.90;94.90;;;;;;4978389;28;20454;-73
2022/05/12 15:59:11;;;;;;;4.17;3.83;;;23.80;95.90;;;;;;4978255;28;20469;-73
2022/05/12 16:01:38;;;;;;;5.20;4.80;;;23.80;97.40;;;;;;4977996;28;20482;-73
2022/05/12 16:04:06;;;;;;;9.23;6.43;;;23.60;99.90;;;;;;4978259;28;20465;-73
2022/05/12 16:06:34;;;;;;;5.10;4.70;;;23.50;99.90;;;;;;4978074;28;20465;-73
2022/05/12 16:09:01;;;;;;;5.63;5.03;;;23.40;99.90;;;;;;4977886;28;20948;-74
2022/05/12 16:11:59;;;;;;;6.87;5.70;;;23.10;99.90;;;;;;4978236;28;20482;-74
2022/05/12 16:14:25;;;;;;;8.30;5.23;;;22.90;99.90;;;;;;4977768;28;20453;-74
2022/05/12 16:16:53;;;;;;;7.83;5.40;;;22.60;99.90;;;;;;4978990;28;20458;-74
2022/05/12 16:19:21;;;;;;;6.83;6.13;;;22.30;99.90;;;;;;4978943;28;20451;-74
2022/05/12 16:21:48;;;;;;;6.57;5.97;;;21.90;99.90;;;;;;4979775;28;20475;-74
2022/05/12 16:24:16;;;;;;;10.37;5.90;;;21.70;99.90;;;;;;4979942;28;20459;-74
2022/05/12 16:26:45;;;;;;;7.07;6.37;;;21.40;99.90;;;;;;4979892;28;20513;-74
2022/05/12 16:29:17;;;;;;;6.50;5.70;;;21.20;99.90;;;;;;4979855;28;20474;-74
2022/05/12 16:31:43;;;;;;;6.53;6.03;;;21.00;99.90;;;;;;4980235;28;20473;-74
2022/05/12 16:34:10;;;;;;;6.47;5.87;;;20.80;99.90;;;;;;4980631;28;20454;-74
2022/05/12 16:36:39;;;;;;;10.43;6.40;;;20.70;99.90;;;;;;4979806;28;20820;-76
2022/05/12 16:39:05;;;;;;;7.87;6.50;;;20.50;99.90;;;;;;4980841;28;20455;-74
2022/05/12 16:41:32;;;;;;;9.20;6.87;;;20.20;99.90;;;;;;4979488;28;20478;-74
2022/05/12 16:43:59;;;;;;;8.67;7.00;;;20.00;99.90;;;;;;4978764;28;20455;-73
2022/05/12 16:46:26;;;;;;;9.27;7.00;;;19.70;99.90;;;;;;4979216;28;20458;-73
2022/05/12 16:48:52;;;;;;;9.40;7.50;;;19.50;99.90;;;;;;4979768;28;20482;-73
2022/05/12 16:51:19;;;;;;;7.77;7.07;;;19.40;99.90;;;;;;4979551;28;20537;-72
2022/05/12 16:53:47;;;;;;;10.17;8.80;;;19.40;99.90;;;;;;4979752;28;20505;-72
2022/05/12 16:56:14;;;;;;;8.53;7.73;;;19.40;99.90;;;;;;4980021;28;20492;-73
2022/05/12 16:58:41;;;;;;;11.77;8.40;;;19.40;99.90;;;;;;4980893;28;20455;-73
2022/05/12 17:01:07;;;;;;;9.57;8.27;;;19.50;99.90;;;;;;4979007;28;20485;-73
2022/05/12 17:03:34;;;;;;;8.93;8.03;;;19.50;99.90;;;;;;4977628;28;20459;-73
2022/05/12 17:06:02;;;;;;;8.37;7.57;;;19.50;99.90;;;;;;4978623;28;20454;-72
2022/05/12 17:08:30;;;;;;;8.10;7.33;;;19.60;99.90;;;;;;4978956;28;20486;-72
2022/05/12 17:11:01;;;;;;;9.03;8.17;;;19.60;99.90;;;;;;4976897;28;20482;-72
2022/05/12 17:13:29;;;;;;;9.00;8.23;;;19.60;99.90;;;;;;4976706;28;20449;-73
2022/05/12 17:15:56;;;;;;;9.17;8.23;;;19.60;99.90;;;;;;4977020;28;20490;-73
2022/05/12 17:18:22;;;;;;;9.20;8.30;;;19.70;99.90;;;;;;4979415;28;20451;-73
2022/05/12 17:20:49;;;;;;;9.77;8.20;;;19.80;99.90;;;;;;4980410;28;20479;-72
2022/05/12 17:23:16;;;;;;;9.87;7.67;;;19.80;99.90;;;;;;4979733;28;20875;-73
2022/05/12 17:25:43;;;;;;;10.63;7.67;;;19.80;99.90;;;;;;4979785;28;20459;-72
2022/05/12 17:28:11;;;;;;;9.93;8.80;;;19.80;99.90;;;;;;4979194;28;20833;-72
2022/05/12 17:30:39;;;;;;;9.60;8.53;;;19.90;99.90;;;;;;4979287;28;20475;-73
2022/05/12 17:33:06;;;;;;;9.20;8.40;;;19.90;99.90;;;;;;4978885;28;20454;-72
2022/05/12 17:35:33;;;;;;;10.90;8.03;;;19.90;99.90;;;;;;4978752;28;20497;-73
2022/05/12 17:38:01;;;;;;;9.20;8.47;;;19.90;99.90;;;;;;4979019;28;20562;-73